Time;durP1;ratioP1;P1;durP2;ratioP2;P2;SDS_P1;SDS_P2;PMS_P1;PMS_P2;Temp;Humidity;BMP_temperature;BMP_pressure;BME280_temperature;BME280_humidity;BME280_pressure;Samples;Min_cycle;Max_cycle;Signal;HPM_P1;HPM_P2
2022/11/06 00:00:55;;;;;;;8.10;4.25;;;11.80;69.50;;;;;;2374037;56;22175;-56
2022/11/06 00:03:24;;;;;;;9.48;4.95;;;11.80;69.40;;;;;;2373965;56;21534;-58
2022/11/06 00:08:39;;;;;;;8.57;5.37;;;11.80;69.40;;;;;;2373412;56;21494;-61
2022/11/06 00:11:12;;;;;;;7.93;4.50;;;11.80;69.30;;;;;;2374564;56;21149;-56
2022/11/06 00:13:40;;;;;;;6.03;4.32;;;11.80;69.50;;;;;;2374411;56;21034;-57
2022/11/06 00:16:10;;;;;;;11.95;4.95;;;11.80;69.50;;;;;;2374205;56;21051;-56
2022/11/06 00:18:38;;;;;;;6.97;4.40;;;11.80;69.40;;;;;;2373878;56;21109;-58
2022/11/06 00:21:15;;;;;;;11.15;4.47;;;11.80;69.30;;;;;;2374582;56;21090;-57
2022/11/06 00:23:43;;;;;;;7.03;3.97;;;11.80;69.30;;;;;;2373869;56;21660;-59
2022/11/06 00:26:13;;;;;;;7.70;4.50;;;11.80;69.30;;;;;;2373836;56;21507;-56
2022/11/06 00:28:41;;;;;;;7.60;4.68;;;11.80;69.20;;;;;;2374375;56;21086;-58
2022/11/06 00:31:09;;;;;;;8.18;4.43;;;11.90;69.20;;;;;;2374006;56;21526;-53
2022/11/06 00:33:37;;;;;;;8.52;4.40;;;11.80;69.00;;;;;;2374422;56;21091;-56
2022/11/06 00:36:06;;;;;;;7.28;4.60;;;11.80;69.00;;;;;;2374337;56;21554;-58
2022/11/06 00:38:34;;;;;;;8.73;4.30;;;11.90;69.10;;;;;;2373811;56;21039;-56
2022/11/06 00:43:38;;;;;;;10.82;4.55;;;11.80;69.00;;;;;;2355883;57;23097;-54
2022/11/06 00:46:07;;;;;;;6.87;4.75;;;11.90;69.20;;;;;;2370047;56;21521;-58
2022/11/06 00:48:35;;;;;;;6.72;4.78;;;11.90;69.20;;;;;;2374043;56;21608;-55
2022/11/06 00:51:03;;;;;;;11.35;4.43;;;11.90;69.20;;;;;;2375018;56;21585;-58
2022/11/06 00:53:30;;;;;;;13.15;4.87;;;11.80;69.00;;;;;;2375462;56;21625;-58
2022/11/06 00:56:05;;;;;;;9.98;4.60;;;11.90;69.00;;;;;;2374863;56;21778;-55
2022/11/06 00:58:32;;;;;;;6.57;4.20;;;11.80;68.80;;;;;;2374783;56;21039;-59
2022/11/06 01:01:07;;;;;;;5.70;4.28;;;11.90;68.90;;;;;;2374817;56;21573;-59
2022/11/06 01:03:34;;;;;;;6.97;3.72;;;11.90;69.00;;;;;;2375471;56;21122;-57
2022/11/06 01:06:08;;;;;;;6.82;4.07;;;11.80;69.00;;;;;;2374782;56;21123;-57
2022/11/06 01:11:14;;;;;;;5.82;4.28;;;11.80;69.00;;;;;;2357796;57;22105;-54
2022/11/06 01:13:43;;;;;;;7.03;4.65;;;11.80;69.00;;;;;;2377406;56;22086;-55
2022/11/06 01:16:13;;;;;;;6.05;3.53;;;11.80;69.00;;;;;;2400234;56;21677;-56
2022/11/06 01:18:42;;;;;;;6.97;3.85;;;11.80;69.10;;;;;;2405337;56;21024;-58
2022/11/06 01:21:11;;;;;;;5.70;3.50;;;11.80;68.90;;;;;;2404879;56;21507;-56
2022/11/06 01:23:39;;;;;;;8.00;4.12;;;11.80;68.90;;;;;;2404313;56;21606;-58
2022/11/06 01:26:08;;;;;;;5.18;3.53;;;11.80;68.70;;;;;;2405028;56;21575;-55
2022/11/06 01:28:35;;;;;;;4.50;3.85;;;11.80;68.60;;;;;;2405419;56;21051;-57
2022/11/06 01:31:04;;;;;;;6.07;3.67;;;11.80;68.60;;;;;;2404497;56;21736;-58
2022/11/06 01:33:31;;;;;;;8.38;4.15;;;11.90;68.70;;;;;;2405005;56;21047;-56
2022/11/06 01:35:59;;;;;;;7.40;4.18;;;11.80;68.50;;;;;;2474861;53;21080;-62
2022/11/06 01:38:26;;;;;;;7.53;3.40;;;11.80;68.60;;;;;;2330738;57;21593;-62
2022/11/06 01:40:54;;;;;;;6.85;3.92;;;11.80;68.60;;;;;;2330145;57;21615;-62
2022/11/06 01:43:23;;;;;;;6.80;4.05;;;11.80;68.70;;;;;;2330604;57;21099;-63
2022/11/06 01:45:53;;;;;;;6.32;4.07;;;11.80;68.70;;;;;;2330749;57;21110;-63
2022/11/06 01:48:24;;;;;;;7.05;4.00;;;11.80;68.80;;;;;;2330858;57;21624;-63
2022/11/06 01:50:55;;;;;;;8.82;4.05;;;11.80;68.90;;;;;;2330528;57;21411;-63
2022/11/06 01:53:25;;;;;;;7.62;3.70;;;11.70;68.80;;;;;;2330657;57;21114;-63
2022/11/06 01:55:55;;;;;;;10.50;3.80;;;11.80;69.00;;;;;;2329815;57;22219;-63
2022/11/06 01:58:25;;;;;;;7.82;3.62;;;11.80;69.00;;;;;;2330519;57;21628;-62
2022/11/06 02:00:53;;;;;;;5.87;3.22;;;11.80;69.00;;;;;;2330429;57;21048;-63
2022/11/06 02:03:20;;;;;;;6.32;3.17;;;11.80;69.00;;;;;;2330037;57;21714;-62
2022/11/06 02:05:48;;;;;;;7.10;3.45;;;11.80;69.10;;;;;;2329828;57;21522;-63
2022/11/06 02:08:18;;;;;;;5.75;3.90;;;11.80;69.00;;;;;;2330717;57;21055;-63
2022/11/06 02:10:46;;;;;;;7.35;3.55;;;11.80;69.00;;;;;;2330316;57;21537;-62
2022/11/06 02:13:27;;;;;;;5.78;3.70;;;11.80;69.00;;;;;;2330529;57;21059;-63
2022/11/06 02:16:00;;;;;;;6.12;3.85;;;11.80;69.00;;;;;;2329673;57;21598;-63
2022/11/06 02:18:55;;;;;;;8.40;3.85;;;11.80;68.80;;;;;;2330742;57;21071;-63
2022/11/06 02:25:05;;;;;;;9.05;3.83;;;11.80;68.80;;;;;;2353070;57;22584;-62
2022/11/06 02:27:34;;;;;;;5.70;3.83;;;11.80;68.90;;;;;;2347777;57;21533;-64
2022/11/06 02:30:05;;;;;;;7.50;3.40;;;11.70;68.70;;;;;;2347654;57;21125;-62
2022/11/06 02:32:38;;;;;;;5.50;3.37;;;11.70;68.90;;;;;;2347603;57;21045;-62
2022/11/06 02:35:22;;;;;;;11.18;5.03;;;11.70;69.00;;;;;;2347771;57;21504;-62
2022/11/06 02:37:53;;;;;;;9.00;4.10;;;11.70;69.10;;;;;;2347143;57;21045;-63
2022/11/06 02:40:24;;;;;;;6.00;3.80;;;11.70;69.00;;;;;;2347439;57;21520;-63
2022/11/06 02:42:54;;;;;;;6.90;3.92;;;11.70;69.00;;;;;;2347589;57;21172;-63
2022/11/06 02:45:23;;;;;;;5.43;3.78;;;11.70;69.10;;;;;;2347781;57;21113;-63
2022/11/06 02:50:34;;;;;;;7.80;4.12;;;11.70;69.10;;;;;;2354298;57;22074;-62
2022/11/06 02:53:05;;;;;;;6.12;4.30;;;11.80;69.00;;;;;;2348179;57;21085;-64
2022/11/06 02:55:36;;;;;;;9.02;4.22;;;11.80;69.00;;;;;;2363101;56;21589;-62
2022/11/06 02:58:08;;;;;;;6.37;3.50;;;11.80;69.00;;;;;;2375865;56;21071;-63
2022/11/06 03:00:37;;;;;;;8.15;3.40;;;11.80;69.10;;;;;;2375740;56;21086;-63
2022/11/06 03:03:11;;;;;;;5.37;3.62;;;11.80;69.10;;;;;;2375498;56;21078;-63
2022/11/06 03:05:45;;;;;;;7.25;3.70;;;11.80;69.20;;;;;;2375987;56;21557;-62
2022/11/06 03:08:18;;;;;;;6.95;4.28;;;11.80;69.10;;;;;;2375552;56;21043;-63
2022/11/06 03:13:38;;;;;;;6.30;3.33;;;11.80;69.30;;;;;;2537092;54;22102;-62
2022/11/06 03:16:16;;;;;;;6.50;3.78;;;11.80;69.50;;;;;;2313154;58;21527;-62
2022/11/06 03:18:53;;;;;;;5.10;3.50;;;11.80;69.20;;;;;;2318604;58;21562;-62
2022/11/06 03:21:25;;;;;;;5.07;3.55;;;11.80;69.30;;;;;;2318011;58;21535;-62
2022/11/06 03:23:57;;;;;;;8.95;4.07;;;11.80;69.30;;;;;;2318473;58;21542;-62
2022/11/06 03:26:30;;;;;;;5.30;3.80;;;11.80;69.50;;;;;;2318899;58;21119;-62
2022/11/06 03:29:01;;;;;;;9.20;4.00;;;11.80;69.50;;;;;;2317581;58;21041;-62
2022/11/06 03:31:34;;;;;;;5.47;3.67;;;11.80;69.50;;;;;;2317861;58;21649;-62
2022/11/06 03:34:06;;;;;;;8.85;3.72;;;11.80;69.50;;;;;;2318702;58;21606;-62
2022/11/06 03:36:38;;;;;;;7.85;4.15;;;11.80;69.40;;;;;;2318568;58;21515;-62
2022/11/06 03:39:09;;;;;;;8.93;3.92;;;11.80;69.50;;;;;;2318333;58;21590;-62
2022/11/06 03:41:41;;;;;;;9.13;3.60;;;11.80;69.50;;;;;;2317834;58;21516;-61
2022/11/06 03:44:12;;;;;;;10.25;3.97;;;11.80;69.30;;;;;;2318697;58;21787;-61
2022/11/06 03:46:44;;;;;;;9.98;3.37;;;11.80;69.40;;;;;;2317496;58;21554;-62
2022/11/06 03:49:17;;;;;;;6.43;3.10;;;11.80;70.30;;;;;;2318959;58;21091;-62
2022/11/06 03:51:51;;;;;;;8.02;3.50;;;11.80;69.50;;;;;;2318191;58;21707;-62
2022/11/06 03:54:23;;;;;;;6.50;3.83;;;11.80;69.50;;;;;;2318066;58;21116;-64
2022/11/06 03:56:56;;;;;;;5.90;3.37;;;11.90;69.40;;;;;;2318470;58;21543;-64
2022/11/06 03:59:26;;;;;;;5.68;3.60;;;11.80;69.40;;;;;;2318786;58;21111;-65
2022/11/06 04:01:57;;;;;;;5.82;3.72;;;11.80;69.40;;;;;;2317219;58;22325;-64
2022/11/06 04:04:28;;;;;;;4.45;3.15;;;11.80;69.50;;;;;;2317689;58;21132;-63
2022/11/06 04:07:01;;;;;;;6.32;3.35;;;11.80;69.50;;;;;;2318640;58;21032;-63
2022/11/06 04:15:16;;;;;;;4.78;2.97;;;11.90;69.10;;;;;;2272235;58;21614;-63
2022/11/06 04:17:44;;;;;;;6.47;3.08;;;11.90;69.40;;;;;;2318652;58;21035;-62
2022/11/06 04:21:20;;;;;;;6.95;3.55;;;11.90;69.60;;;;;;2317141;58;21060;-62
2022/11/06 04:26:57;;;;;;;7.68;3.58;;;11.90;69.20;;;;;;2317068;58;21052;-62
2022/11/06 04:29:34;;;;;;;6.25;3.08;;;11.90;69.20;;;;;;2317226;58;21576;-63
2022/11/06 04:32:10;;;;;;;4.97;3.15;;;11.90;69.40;;;;;;2316603;58;21047;-62
2022/11/06 04:34:44;;;;;;;7.78;3.45;;;11.90;69.50;;;;;;2317123;58;21526;-63
2022/11/06 04:37:17;;;;;;;5.07;3.72;;;11.80;69.50;;;;;;2317241;58;21577;-63
2022/11/06 04:39:55;;;;;;;7.57;3.87;;;11.90;69.50;;;;;;2317553;58;21124;-63
2022/11/06 04:42:29;;;;;;;6.00;4.15;;;11.90;69.60;;;;;;2316915;58;21527;-63
2022/11/06 04:45:02;;;;;;;6.15;3.78;;;11.90;69.80;;;;;;2317413;58;21531;-63
2022/11/06 04:47:29;;;;;;;;;;;11.90;70.30;;;;;;2320704;58;21079;-63
2022/11/06 04:50:01;;;;;;;7.43;4.03;;;12.00;70.30;;;;;;2317304;58;20068;-62
2022/11/06 04:52:29;;;;;;;6.03;4.15;;;11.90;70.20;;;;;;2316809;58;21063;-63
2022/11/06 04:54:58;;;;;;;7.05;3.53;;;11.90;70.70;;;;;;2316710;58;21576;-63
2022/11/06 04:57:26;;;;;;;6.85;3.25;;;11.90;70.80;;;;;;2317276;58;21119;-63
2022/11/06 04:59:55;;;;;;;5.20;3.22;;;11.90;71.00;;;;;;2317379;58;21593;-63
2022/11/06 05:02:22;;;;;;;5.25;3.30;;;11.80;71.10;;;;;;2316986;58;21539;-63
2022/11/06 05:04:50;;;;;;;4.28;3.00;;;11.80;71.20;;;;;;2317310;58;21199;-62
2022/11/06 05:07:17;;;;;;;6.10;4.07;;;11.80;71.30;;;;;;2317577;58;21052;-63
2022/11/06 05:09:44;;;;;;;7.68;3.72;;;11.80;71.30;;;;;;2317350;58;21068;-63
2022/11/06 05:12:12;;;;;;;8.75;3.42;;;11.80;71.40;;;;;;2316090;58;21045;-62
2022/11/06 05:14:39;;;;;;;6.82;3.90;;;11.80;71.50;;;;;;2316273;58;21048;-63
2022/11/06 05:17:07;;;;;;;5.25;3.60;;;11.80;71.50;;;;;;2317519;58;21563;-63
2022/11/06 05:19:34;;;;;;;7.28;2.95;;;11.80;71.40;;;;;;2317319;58;21582;-63
2022/11/06 05:24:47;;;;;;;7.37;3.83;;;11.70;71.40;;;;;;2317503;58;21036;-63
2022/11/06 05:27:14;;;;;;;6.65;3.28;;;11.70;71.50;;;;;;2317099;58;21575;-63
2022/11/06 05:29:42;;;;;;;8.13;3.28;;;11.70;72.50;;;;;;2317320;58;21544;-63
2022/11/06 05:32:09;;;;;;;6.75;3.30;;;11.80;71.60;;;;;;2316566;58;21712;-63
2022/11/06 05:34:36;;;;;;;5.55;3.20;;;11.70;71.40;;;;;;2316314;58;21662;-63
2022/11/06 05:37:03;;;;;;;7.28;3.85;;;11.70;71.20;;;;;;2315927;58;21069;-62
2022/11/06 05:39:31;;;;;;;6.97;3.37;;;11.70;71.10;;;;;;2316688;58;21057;-63
2022/11/06 05:41:58;;;;;;;4.75;3.25;;;11.70;71.40;;;;;;2316987;58;21081;-63
2022/11/06 05:44:25;;;;;;;7.10;3.12;;;11.70;71.30;;;;;;2316646;58;21056;-63
2022/11/06 05:46:53;;;;;;;5.15;3.30;;;11.70;71.40;;;;;;2317609;58;21622;-63
2022/11/06 05:49:20;;;;;;;8.95;4.30;;;11.60;71.30;;;;;;2317007;58;21120;-63
2022/11/06 05:54:24;;;;;;;7.12;3.45;;;11.60;71.20;;;;;;2351064;57;22149;-61
2022/11/06 05:56:51;;;;;;;8.32;3.80;;;11.60;70.90;;;;;;2347770;57;21579;-62
2022/11/06 05:59:19;;;;;;;6.70;3.70;;;11.60;70.90;;;;;;2348100;57;21050;-62
2022/11/06 06:01:46;;;;;;;9.35;2.92;;;11.60;71.10;;;;;;2347288;57;21021;-62
2022/11/06 06:04:13;;;;;;;4.90;2.78;;;11.60;71.30;;;;;;2347531;57;21737;-62
2022/11/06 06:06:41;;;;;;;6.15;2.97;;;11.60;71.10;;;;;;2347259;57;21030;-61
2022/11/06 06:09:08;;;;;;;6.32;3.28;;;11.60;71.10;;;;;;2347096;57;21105;-63
2022/11/06 06:11:36;;;;;;;6.30;3.40;;;11.60;70.90;;;;;;2346645;57;21045;-62
2022/11/06 06:14:03;;;;;;;7.32;3.30;;;11.60;71.70;;;;;;2346599;57;21208;-62
2022/11/06 06:16:30;;;;;;;5.25;3.10;;;11.60;71.10;;;;;;2346316;57;21584;-61
2022/11/06 06:18:58;;;;;;;5.47;3.08;;;11.60;71.10;;;;;;2347831;57;21517;-62
2022/11/06 06:21:25;;;;;;;4.18;3.00;;;11.60;71.30;;;;;;2347785;57;21058;-62
2022/11/06 06:23:52;;;;;;;8.30;3.55;;;11.60;71.30;;;;;;2347952;57;21093;-62
2022/11/06 06:26:19;;;;;;;7.12;3.20;;;11.60;71.30;;;;;;2347389;57;21050;-62
2022/11/06 06:28:49;;;;;;;9.60;4.18;;;11.60;71.40;;;;;;2347680;57;21722;-62
2022/11/06 06:31:16;;;;;;;5.35;2.85;;;11.60;71.40;;;;;;2347996;57;21033;-62
2022/11/06 06:33:43;;;;;;;5.70;3.20;;;11.60;71.30;;;;;;2347731;57;21081;-61
2022/11/06 06:36:11;;;;;;;3.70;2.70;;;11.60;71.50;;;;;;2347747;57;21489;-62
2022/11/06 06:38:38;;;;;;;6.87;3.45;;;11.60;71.50;;;;;;2347867;57;21109;-61
2022/11/06 06:41:07;;;;;;;5.47;3.55;;;11.60;71.50;;;;;;2347326;57;21045;-64
2022/11/06 06:43:35;;;;;;;9.20;3.00;;;11.60;71.60;;;;;;2348042;57;21690;-64
2022/11/06 06:46:04;;;;;;;6.07;3.58;;;11.70;71.60;;;;;;2347696;57;21101;-64
2022/11/06 06:48:31;;;;;;;6.40;2.90;;;11.70;71.70;;;;;;2347573;57;21549;-64
2022/11/06 06:51:00;;;;;;;8.00;3.47;;;11.70;71.70;;;;;;2347502;57;21547;-64
2022/11/06 06:53:27;;;;;;;6.70;2.72;;;11.70;71.40;;;;;;2347869;57;21102;-64
2022/11/06 06:55:57;;;;;;;7.68;3.42;;;11.70;71.40;;;;;;2347490;57;21033;-64
2022/11/06 06:58:24;;;;;;;7.70;3.00;;;11.70;71.50;;;;;;2347447;57;21544;-63
2022/11/06 07:00:52;;;;;;;6.15;3.20;;;11.80;71.40;;;;;;2347705;57;21109;-64
2022/11/06 07:03:19;;;;;;;4.28;2.78;;;11.80;71.30;;;;;;2347017;57;21057;-63
2022/11/06 07:05:46;;;;;;;6.30;2.90;;;11.80;71.40;;;;;;2346041;57;21654;-64
2022/11/06 07:08:14;;;;;;;4.50;3.15;;;11.80;71.30;;;;;;2346177;57;21050;-64
2022/11/06 07:10:41;;;;;;;7.22;2.45;;;11.80;71.20;;;;;;2346970;57;21626;-64
2022/11/06 07:13:08;;;;;;;4.97;2.97;;;11.90;71.30;;;;;;2347000;57;21045;-64
2022/11/06 07:15:36;;;;;;;7.87;2.92;;;11.90;71.20;;;;;;2346570;57;21102;-64
2022/11/06 07:18:04;;;;;;;6.35;2.72;;;12.00;71.20;;;;;;2345775;57;21034;-64
2022/11/06 07:20:33;;;;;;;5.20;2.97;;;12.00;71.00;;;;;;2346473;57;21525;-63
2022/11/06 07:23:05;;;;;;;4.35;2.30;;;12.00;70.80;;;;;;2345865;57;21053;-64
2022/11/06 07:25:33;;;;;;;5.93;2.60;;;12.00;70.60;;;;;;2346637;57;21580;-65
2022/11/06 07:28:01;;;;;;;4.00;2.78;;;12.00;70.50;;;;;;2345067;57;21667;-64
2022/11/06 07:30:29;;;;;;;3.60;2.35;;;12.00;70.70;;;;;;2346356;57;21105;-63
2022/11/06 07:32:58;;;;;;;6.00;3.00;;;12.10;70.80;;;;;;2345672;57;21560;-64
2022/11/06 07:35:26;;;;;;;6.62;3.10;;;12.10;70.50;;;;;;2345990;57;21516;-63
2022/11/06 07:37:53;;;;;;;11.27;3.45;;;12.10;70.50;;;;;;2346111;57;21061;-62
2022/11/06 07:40:20;;;;;;;3.95;2.30;;;12.10;70.60;;;;;;2345739;57;21097;-62
2022/11/06 07:42:47;;;;;;;3.60;2.62;;;12.10;70.50;;;;;;2345488;57;21105;-62
2022/11/06 07:47:51;;;;;;;4.75;2.33;;;12.20;70.70;;;;;;2452368;53;22144;-51
2022/11/06 07:50:18;;;;;;;5.97;2.90;;;12.20;70.70;;;;;;2382332;56;21122;-50
2022/11/06 07:52:45;;;;;;;9.15;2.45;;;12.30;70.60;;;;;;2380502;56;21699;-56
2022/11/06 07:55:13;;;;;;;7.82;2.47;;;12.30;70.50;;;;;;2378773;56;21044;-52
2022/11/06 07:57:41;;;;;;;5.18;2.42;;;12.30;70.30;;;;;;2380842;56;21550;-52
2022/11/06 08:00:12;;;;;;;4.37;2.92;;;12.30;70.40;;;;;;2380329;56;21490;-49
2022/11/06 08:05:15;;;;;;;4.07;2.28;;;12.40;70.20;;;;;;2339466;57;22194;-51
2022/11/06 08:07:43;;;;;;;5.05;2.62;;;12.40;70.30;;;;;;2346091;57;21584;-52
2022/11/06 08:10:10;;;;;;;5.10;2.35;;;12.40;70.00;;;;;;2345426;57;21129;-49
2022/11/06 08:12:37;;;;;;;4.95;2.30;;;12.40;69.80;;;;;;2345391;57;21126;-54
2022/11/06 08:15:07;;;;;;;5.43;2.65;;;12.50;69.60;;;;;;2346610;57;22574;-48
2022/11/06 08:20:11;;;;;;;8.63;2.70;;;12.50;69.80;;;;;;2355528;57;22122;-49
2022/11/06 08:25:15;;;;;;;7.87;2.12;;;12.60;69.50;;;;;;2342823;57;22183;-52
2022/11/06 08:27:42;;;;;;;8.30;2.65;;;12.50;69.30;;;;;;2346063;57;21547;-50
2022/11/06 08:30:12;;;;;;;7.60;2.50;;;12.60;69.40;;;;;;2345154;57;21037;-49
2022/11/06 08:32:39;;;;;;;8.18;3.17;;;12.60;69.70;;;;;;2346435;57;21603;-50
2022/11/06 08:35:09;;;;;;;9.55;2.87;;;12.60;70.20;;;;;;2346646;57;21038;-52
2022/11/06 08:37:36;;;;;;;4.45;2.62;;;12.60;70.40;;;;;;2346717;57;21056;-49
2022/11/06 08:40:06;;;;;;;4.50;2.55;;;12.60;70.50;;;;;;2347521;57;21037;-50
2022/11/06 08:42:33;;;;;;;4.32;3.12;;;12.70;70.30;;;;;;2344440;57;21571;-55
2022/11/06 08:45:01;;;;;;;7.57;2.47;;;12.70;70.30;;;;;;2343084;57;22016;-50
2022/11/06 08:47:28;;;;;;;7.18;3.33;;;12.70;70.50;;;;;;2344481;57;21110;-53
2022/11/06 08:49:55;;;;;;;6.03;2.92;;;12.70;70.50;;;;;;2346070;57;21045;-53
2022/11/06 08:52:22;;;;;;;6.55;2.83;;;12.70;70.40;;;;;;2345883;57;21513;-54
2022/11/06 08:54:50;;;;;;;6.87;2.55;;;12.80;70.20;;;;;;2345893;57;21050;-53
2022/11/06 08:57:17;;;;;;;5.03;2.53;;;12.90;69.90;;;;;;2346007;57;21109;-52
2022/11/06 09:02:22;;;;;;;3.37;2.45;;;12.80;69.80;;;;;;2326232;57;22080;-52
2022/11/06 09:04:49;;;;;;;3.97;2.37;;;12.90;69.40;;;;;;2357189;56;21074;-52
2022/11/06 09:07:17;;;;;;;6.87;2.22;;;13.00;69.20;;;;;;2388201;56;21567;-53
2022/11/06 09:09:44;;;;;;;5.47;2.65;;;13.00;69.20;;;;;;2387708;56;21038;-49
2022/11/06 09:12:11;;;;;;;3.45;1.90;;;13.00;68.90;;;;;;2388791;56;21070;-49
2022/11/06 09:17:14;;;;;;;5.07;2.60;;;13.00;68.40;;;;;;2253429;59;28432;-50
2022/11/06 09:19:42;;;;;;;4.80;2.62;;;12.90;69.00;;;;;;2289499;58;22418;-55
2022/11/06 09:22:09;;;;;;;2.95;2.20;;;13.00;68.60;;;;;;2289202;58;21075;-52
2022/11/06 09:27:12;;;;;;;2.35;1.80;;;13.10;67.90;;;;;;2354705;57;22066;-51
2022/11/06 09:32:16;;;;;;;3.70;1.95;;;13.10;67.70;;;;;;2354865;57;22070;-51
2022/11/06 09:34:43;;;;;;;4.60;2.40;;;13.10;67.90;;;;;;2352786;56;21514;-51
2022/11/06 09:37:10;;;;;;;6.40;2.65;;;13.20;68.60;;;;;;2374951;56;21098;-49
2022/11/06 09:39:37;;;;;;;3.92;2.30;;;13.20;67.60;;;;;;2374205;56;21551;-52
2022/11/06 09:45:00;;;;;;;4.37;2.03;;;13.20;67.70;;;;;;2362443;56;22172;-50
2022/11/06 09:47:31;;;;;;;4.28;2.30;;;13.20;67.70;;;;;;2373694;56;21513;-49
2022/11/06 09:50:00;;;;;;;5.90;2.30;;;13.30;68.00;;;;;;2373434;56;21739;-54
2022/11/06 09:52:33;;;;;;;6.53;2.65;;;13.30;67.90;;;;;;2373946;56;21528;-49
2022/11/06 09:55:03;;;;;;;4.05;2.03;;;13.30;67.90;;;;;;2373564;56;21030;-53
2022/11/06 09:57:38;;;;;;;4.50;2.22;;;13.30;67.70;;;;;;2375105;56;21607;-49
2022/11/06 10:00:12;;;;;;;2.95;2.37;;;13.30;67.60;;;;;;2374970;56;21592;-50
2022/11/06 10:05:23;;;;;;;4.05;2.50;;;13.40;67.80;;;;;;2366179;56;22125;-53
2022/11/06 10:07:54;;;;;;;5.20;2.00;;;13.50;67.30;;;;;;2369069;56;21856;-50
2022/11/06 10:10:27;;;;;;;7.05;2.53;;;13.50;67.20;;;;;;2373403;56;21525;-52
2022/11/06 10:13:23;;;;;;;5.12;2.10;;;13.50;67.20;;;;;;2373581;56;21601;-50
2022/11/06 10:15:58;;;;;;;4.60;2.12;;;13.50;67.20;;;;;;2373614;56;22195;-50
2022/11/06 10:23:47;;;;;;;4.25;2.60;;;13.60;67.10;;;;;;2355454;57;22560;-49
2022/11/06 10:26:16;;;;;;;4.00;1.92;;;13.60;67.00;;;;;;2369885;56;21526;-50
2022/11/06 10:31:36;;;;;;;4.18;2.17;;;13.60;66.90;;;;;;2327375;57;22079;-59
2022/11/06 10:34:11;;;;;;;6.30;2.50;;;13.60;67.00;;;;;;2346115;57;21551;-61
2022/11/06 10:36:46;;;;;;;3.12;1.98;;;13.60;67.00;;;;;;2319942;58;21088;-54
2022/11/06 10:39:19;;;;;;;7.18;2.90;;;13.60;66.90;;;;;;2320650;58;21186;-50
2022/11/06 10:41:51;;;;;;;3.40;2.17;;;13.70;66.90;;;;;;2320593;58;21060;-50
2022/11/06 10:44:24;;;;;;;4.68;2.55;;;13.60;66.80;;;;;;2320006;58;21083;-54
2022/11/06 10:46:55;;;;;;;3.62;2.50;;;13.70;67.80;;;;;;2320507;58;21642;-49
2022/11/06 10:52:21;;;;;;;4.32;1.70;;;13.70;67.10;;;;;;2356487;57;22066;-49
2022/11/06 10:55:01;;;;;;;3.47;1.87;;;13.70;67.20;;;;;;2355520;56;21640;-55
2022/11/06 10:57:37;;;;;;;6.62;2.60;;;13.70;67.10;;;;;;2375708;56;21586;-53
2022/11/06 11:00:10;;;;;;;2.65;1.70;;;13.70;67.20;;;;;;2375567;56;21058;-53
2022/11/06 11:02:41;;;;;;;5.95;2.58;;;13.70;67.30;;;;;;2375773;56;21534;-53
2022/11/06 11:05:13;;;;;;;2.62;2.00;;;13.80;67.50;;;;;;2375189;56;21588;-55
2022/11/06 11:07:42;;;;;;;4.07;2.30;;;13.80;67.40;;;;;;2375759;56;21099;-54
2022/11/06 11:10:32;;;;;;;4.22;2.03;;;13.90;67.40;;;;;;2375876;56;21039;-51
2022/11/06 11:13:01;;;;;;;5.47;2.00;;;13.90;67.30;;;;;;2375415;56;21082;-53
2022/11/06 11:15:30;;;;;;;3.47;1.87;;;13.90;67.30;;;;;;2375336;56;21624;-51
2022/11/06 11:18:17;;;;;;;7.30;2.92;;;14.00;67.50;;;;;;2375694;56;21082;-49
2022/11/06 11:20:46;;;;;;;5.03;2.10;;;14.00;67.60;;;;;;2374610;56;21739;-54
2022/11/06 11:23:19;;;;;;;5.65;2.40;;;14.00;67.20;;;;;;2375075;56;21063;-50
2022/11/06 11:25:47;;;;;;;5.20;2.35;;;14.10;67.10;;;;;;2376144;56;21101;-55
2022/11/06 11:28:26;;;;;;;5.95;2.42;;;14.10;67.20;;;;;;2375577;56;21114;-52
2022/11/06 11:33:32;;;;;;;3.50;2.17;;;14.20;67.10;;;;;;2273388;59;22104;-52
2022/11/06 11:36:01;;;;;;;4.43;2.40;;;14.20;66.90;;;;;;2292341;58;21130;-50
2022/11/06 11:38:28;;;;;;;4.78;2.10;;;14.30;66.80;;;;;;2291949;58;21036;-51
2022/11/06 11:41:06;;;;;;;4.37;2.17;;;14.30;66.50;;;;;;2291431;58;21059;-53
2022/11/06 11:43:33;;;;;;;5.78;2.10;;;14.30;66.40;;;;;;2291901;58;21126;-52
2022/11/06 11:46:19;;;;;;;3.62;2.03;;;14.30;66.40;;;;;;2291765;58;21102;-50
2022/11/06 11:48:49;;;;;;;4.82;2.10;;;14.30;66.70;;;;;;2292037;58;21158;-49
2022/11/06 11:51:29;;;;;;;4.18;1.98;;;14.30;66.80;;;;;;2291957;58;21058;-54
2022/11/06 11:54:01;;;;;;;2.00;1.80;;;14.30;67.00;;;;;;2291561;58;21043;-54
2022/11/06 11:56:29;;;;;;;5.37;2.37;;;14.40;66.80;;;;;;2291329;58;21612;-52
2022/11/06 11:58:58;;;;;;;3.60;1.85;;;14.40;66.70;;;;;;2292037;58;21047;-50
2022/11/06 12:01:37;;;;;;;3.55;2.03;;;14.50;66.60;;;;;;2292243;58;21541;-51
2022/11/06 12:04:15;;;;;;;5.70;2.10;;;14.50;66.80;;;;;;2291698;58;21055;-51
2022/11/06 12:06:52;;;;;;;5.60;2.08;;;14.50;67.00;;;;;;2292375;58;21023;-53
2022/11/06 12:09:20;;;;;;;3.20;1.70;;;14.60;67.10;;;;;;2291998;58;21066;-56
2022/11/06 12:11:48;;;;;;;4.12;1.48;;;14.70;67.10;;;;;;2292010;58;21577;-54
2022/11/06 12:14:35;;;;;;;3.03;1.80;;;14.80;67.20;;;;;;2291189;58;21048;-54
2022/11/06 12:17:13;;;;;;;4.70;2.00;;;14.80;67.10;;;;;;2292136;58;21055;-54
2022/11/06 12:19:47;;;;;;;4.25;1.87;;;14.90;66.70;;;;;;2292162;58;21530;-51
2022/11/06 12:22:17;;;;;;;;;;;15.00;66.60;;;;;;2295359;58;21541;-53
2022/11/06 12:24:51;;;;;;;4.35;1.95;;;15.00;66.30;;;;;;2291975;58;20326;-50
2022/11/06 12:27:22;;;;;;;4.82;1.85;;;15.00;65.60;;;;;;2291788;58;21443;-52
2022/11/06 12:29:55;;;;;;;6.90;1.98;;;15.10;65.60;;;;;;2291425;58;21107;-53
2022/11/06 12:32:37;;;;;;;4.80;1.90;;;15.10;65.70;;;;;;2292207;58;21102;-51
2022/11/06 12:35:14;;;;;;;3.58;1.70;;;15.20;65.50;;;;;;2291773;58;21526;-55
2022/11/06 12:37:51;;;;;;;4.47;1.95;;;15.20;65.50;;;;;;2292190;58;21055;-55
2022/11/06 12:40:21;;;;;;;4.15;1.70;;;15.30;65.20;;;;;;2291858;58;21636;-53
2022/11/06 12:43:55;;;;;;;2.62;1.80;;;15.30;65.10;;;;;;2290914;58;21118;-55
2022/11/06 12:49:26;;;;;;;4.72;1.73;;;15.40;65.10;;;;;;2356053;57;22105;-55
2022/11/06 12:52:15;;;;;;;3.05;1.40;;;15.50;64.60;;;;;;2343735;57;21631;-49
2022/11/06 12:54:57;;;;;;;2.75;1.62;;;15.50;64.50;;;;;;2349099;56;21114;-55
2022/11/06 12:57:35;;;;;;;2.85;1.67;;;15.60;64.40;;;;;;2372903;56;21804;-49
2022/11/06 13:00:10;;;;;;;3.62;1.65;;;15.60;65.10;;;;;;2374130;56;21589;-52
2022/11/06 13:05:19;;;;;;;5.70;2.00;;;15.60;64.20;;;;;;2342765;57;22602;-51
2022/11/06 13:10:59;;;;;;;2.78;1.50;;;15.70;63.80;;;;;;2378469;56;22160;-52
2022/11/06 13:13:35;;;;;;;2.92;1.60;;;15.80;63.90;;;;;;2346695;57;21053;-53
2022/11/06 13:16:14;;;;;;;4.03;1.90;;;15.90;63.50;;;;;;2325096;57;21040;-49
2022/11/06 13:18:45;;;;;;;4.40;1.80;;;16.00;63.20;;;;;;2320095;58;22120;-51
2022/11/06 13:21:20;;;;;;;3.53;1.65;;;16.00;62.80;;;;;;2319439;58;21115;-50
2022/11/06 13:23:51;;;;;;;3.00;1.92;;;16.00;62.70;;;;;;2320232;58;21590;-52
2022/11/06 13:29:02;;;;;;;3.37;1.52;;;16.10;62.50;;;;;;2356576;57;22600;-51
2022/11/06 13:31:36;;;;;;;4.20;2.05;;;16.10;62.50;;;;;;2347900;57;21052;-54
2022/11/06 13:34:06;;;;;;;3.35;1.80;;;16.10;62.50;;;;;;2348359;57;21077;-50
2022/11/06 13:39:18;;;;;;;3.10;1.67;;;16.10;62.20;;;;;;2356839;57;22548;-56
2022/11/06 13:41:46;;;;;;;4.95;1.62;;;16.10;61.80;;;;;;2348174;57;21583;-53
2022/11/06 13:44:15;;;;;;;3.47;1.92;;;16.10;61.50;;;;;;2348262;56;21065;-51
2022/11/06 13:46:54;;;;;;;2.95;1.67;;;16.00;61.70;;;;;;2374679;56;21098;-53
2022/11/06 13:49:30;;;;;;;3.87;1.60;;;16.00;61.70;;;;;;2493899;54;21078;-49
2022/11/06 13:52:00;;;;;;;4.72;2.00;;;15.90;61.60;;;;;;2304450;58;21050;-54
2022/11/06 13:54:44;;;;;;;2.60;1.70;;;15.90;61.50;;;;;;2304449;58;21058;-54
2022/11/06 13:57:51;;;;;;;3.60;2.10;;;15.80;61.30;;;;;;2303137;58;21627;-54
2022/11/06 14:00:20;;;;;;;3.58;2.17;;;15.80;61.70;;;;;;2303115;58;21680;-56
2022/11/06 14:03:24;;;;;;;3.87;1.90;;;15.70;61.80;;;;;;2302102;58;21529;-57
2022/11/06 14:05:56;;;;;;;5.07;2.13;;;15.70;61.90;;;;;;2303359;58;21152;-55
2022/11/06 14:08:27;;;;;;;4.37;2.33;;;15.60;62.00;;;;;;2302651;58;21071;-54
2022/11/06 14:10:59;;;;;;;3.10;2.22;;;15.60;62.20;;;;;;2302912;58;21047;-58
2022/11/06 14:13:32;;;;;;;5.90;2.47;;;15.50;62.10;;;;;;2303074;58;21201;-57
2022/11/06 14:16:03;;;;;;;5.60;2.05;;;15.50;62.10;;;;;;2303683;58;21059;-53
2022/11/06 14:18:30;;;;;;;4.20;2.30;;;15.50;62.10;;;;;;2301966;58;21082;-57
2022/11/06 14:21:27;;;;;;;5.78;2.30;;;15.50;62.20;;;;;;2303055;58;21545;-56
2022/11/06 14:24:04;;;;;;;3.08;2.40;;;15.40;62.50;;;;;;2303149;58;21525;-49
2022/11/06 14:26:40;;;;;;;3.45;1.87;;;15.30;62.30;;;;;;2302997;58;21115;-56
2022/11/06 14:30:02;;;;;;;2.75;2.00;;;15.30;62.30;;;;;;2302994;58;21070;-54
2022/11/06 14:35:50;;;;;;;5.30;1.85;;;15.20;62.90;;;;;;2344988;57;22099;-55
2022/11/06 14:38:37;;;;;;;3.75;2.25;;;15.10;63.30;;;;;;2347624;57;21572;-56